sensor_id;sensor_type;location;lat;lon;timestamp;P1;durP1;ratioP1;P2;durP2;ratioP2
15635;SDS011;7917;50.818;6.972;2023-07-02T00:01:45;9.05;;;4.10;;
15635;SDS011;7917;50.818;6.972;2023-07-02T00:04:12;9.20;;;4.75;;
15635;SDS011;7917;50.818;6.972;2023-07-02T00:06:41;5.82;;;4.10;;
15635;SDS011;7917;50.818;6.972;2023-07-02T00:09:09;6.78;;;3.78;;
15635;SDS011;7917;50.818;6.972;2023-07-02T00:11:36;6.72;;;3.80;;
15635;SDS011;7917;50.818;6.972;2023-07-02T00:14:03;7.22;;;4.30;;
15635;SDS011;7917;50.818;6.972;2023-07-02T00:16:30;5.13;;;4.13;;
15635;SDS011;7917;50.818;6.972;2023-07-02T00:18:56;6.65;;;3.78;;
15635;SDS011;7917;50.818;6.972;2023-07-02T00:21:25;6.43;;;3.78;;
15635;SDS011;7917;50.818;6.972;2023-07-02T00:23:53;5.88;;;3.70;;
15635;SDS011;7917;50.818;6.972;2023-07-02T00:26:22;8.88;;;3.75;;
15635;SDS011;7917;50.818;6.972;2023-07-02T00:28:49;5.25;;;4.10;;
15635;SDS011;7917;50.818;6.972;2023-07-02T00:31:16;6.47;;;3.92;;
15635;SDS011;7917;50.818;6.972;2023-07-02T00:33:43;6.32;;;3.70;;
15635;SDS011;7917;50.818;6.972;2023-07-02T00:36:09;6.07;;;3.83;;
15635;SDS011;7917;50.818;6.972;2023-07-02T00:38:40;5.03;;;3.58;;
15635;SDS011;7917;50.818;6.972;2023-07-02T00:41:07;8.55;;;3.58;;
15635;SDS011;7917;50.818;6.972;2023-07-02T00:43:33;7.32;;;4.25;;
15635;SDS011;7917;50.818;6.972;2023-07-02T00:46:00;6.15;;;3.70;;
15635;SDS011;7917;50.818;6.972;2023-07-02T00:48:27;4.75;;;3.53;;
15635;SDS011;7917;50.818;6.972;2023-07-02T00:50:55;9.27;;;3.97;;
15635;SDS011;7917;50.818;6.972;2023-07-02T00:53:21;7.22;;;3.72;;
15635;SDS011;7917;50.818;6.972;2023-07-02T00:55:49;9.82;;;4.18;;
15635;SDS011;7917;50.818;6.972;2023-07-02T00:58:16;9.38;;;4.82;;
15635;SDS011;7917;50.818;6.972;2023-07-02T01:00:42;9.25;;;4.65;;
15635;SDS011;7917;50.818;6.972;2023-07-02T01:03:10;8.48;;;5.03;;
15635;SDS011;7917;50.818;6.972;2023-07-02T01:05:37;10.90;;;5.15;;
15635;SDS011;7917;50.818;6.972;2023-07-02T01:08:04;10.35;;;6.05;;
15635;SDS011;7917;50.818;6.972;2023-07-02T01:10:31;12.07;;;5.20;;
15635;SDS011;7917;50.818;6.972;2023-07-02T01:12:59;14.25;;;6.57;;
15635;SDS011;7917;50.818;6.972;2023-07-02T01:15:29;10.90;;;5.57;;
15635;SDS011;7917;50.818;6.972;2023-07-02T01:17:57;13.43;;;5.22;;
15635;SDS011;7917;50.818;6.972;2023-07-02T01:20:24;10.80;;;5.47;;
15635;SDS011;7917;50.818;6.972;2023-07-02T01:22:56;11.23;;;5.70;;
15635;SDS011;7917;50.818;6.972;2023-07-02T01:25:24;8.68;;;5.82;;
15635;SDS011;7917;50.818;6.972;2023-07-02T01:27:51;10.90;;;5.60;;
15635;SDS011;7917;50.818;6.972;2023-07-02T01:30:18;10.85;;;5.53;;
15635;SDS011;7917;50.818;6.972;2023-07-02T01:32:45;11.27;;;6.25;;
15635;SDS011;7917;50.818;6.972;2023-07-02T01:35:12;10.65;;;6.60;;
15635;SDS011;7917;50.818;6.972;2023-07-02T01:37:39;11.48;;;6.93;;
15635;SDS011;7917;50.818;6.972;2023-07-02T01:40:06;14.48;;;6.93;;
15635;SDS011;7917;50.818;6.972;2023-07-02T01:42:33;13.70;;;6.65;;
15635;SDS011;7917;50.818;6.972;2023-07-02T01:45:00;12.20;;;6.30;;
15635;SDS011;7917;50.818;6.972;2023-07-02T01:47:27;16.48;;;7.57;;
15635;SDS011;7917;50.818;6.972;2023-07-02T01:49:53;15.80;;;7.40;;
15635;SDS011;7917;50.818;6.972;2023-07-02T01:52:19;13.95;;;7.88;;
15635;SDS011;7917;50.818;6.972;2023-07-02T01:54:47;15.13;;;7.35;;
15635;SDS011;7917;50.818;6.972;2023-07-02T01:57:14;17.73;;;7.63;;
15635;SDS011;7917;50.818;6.972;2023-07-02T01:59:40;13.18;;;6.78;;
15635;SDS011;7917;50.818;6.972;2023-07-02T02:02:06;15.65;;;7.38;;
15635;SDS011;7917;50.818;6.972;2023-07-02T02:04:33;13.27;;;6.68;;
15635;SDS011;7917;50.818;6.972;2023-07-02T02:07:00;17.30;;;7.40;;
15635;SDS011;7917;50.818;6.972;2023-07-02T02:09:26;13.10;;;6.97;;
15635;SDS011;7917;50.818;6.972;2023-07-02T02:11:54;12.70;;;7.15;;
15635;SDS011;7917;50.818;6.972;2023-07-02T02:14:21;17.65;;;7.40;;
15635;SDS011;7917;50.818;6.972;2023-07-02T02:16:47;9.80;;;6.70;;
15635;SDS011;7917;50.818;6.972;2023-07-02T02:19:14;16.42;;;8.00;;
15635;SDS011;7917;50.818;6.972;2023-07-02T02:21:40;16.13;;;7.57;;
15635;SDS011;7917;50.818;6.972;2023-07-02T02:24:07;16.80;;;7.47;;
15635;SDS011;7917;50.818;6.972;2023-07-02T02:26:34;15.25;;;7.50;;
15635;SDS011;7917;50.818;6.972;2023-07-02T02:29:02;19.05;;;8.50;;
15635;SDS011;7917;50.818;6.972;2023-07-02T02:31:28;19.90;;;8.48;;
15635;SDS011;7917;50.818;6.972;2023-07-02T02:33:56;16.10;;;9.18;;
15635;SDS011;7917;50.818;6.972;2023-07-02T02:36:23;19.00;;;8.40;;
15635;SDS011;7917;50.818;6.972;2023-07-02T02:38:50;19.20;;;9.15;;
15635;SDS011;7917;50.818;6.972;2023-07-02T02:41:18;19.80;;;8.18;;
15635;SDS011;7917;50.818;6.972;2023-07-02T02:43:45;16.05;;;8.90;;
15635;SDS011;7917;50.818;6.972;2023-07-02T02:46:12;19.15;;;9.18;;
15635;SDS011;7917;50.818;6.972;2023-07-02T02:48:45;18.83;;;9.82;;
15635;SDS011;7917;50.818;6.972;2023-07-02T02:51:11;18.33;;;9.05;;
15635;SDS011;7917;50.818;6.972;2023-07-02T02:53:38;22.67;;;10.18;;
15635;SDS011;7917;50.818;6.972;2023-07-02T02:56:05;20.63;;;9.65;;
15635;SDS011;7917;50.818;6.972;2023-07-02T02:58:31;16.90;;;9.27;;
15635;SDS011;7917;50.818;6.972;2023-07-02T03:01:10;25.77;;;10.32;;
15635;SDS011;7917;50.818;6.972;2023-07-02T03:03:39;20.17;;;9.55;;
15635;SDS011;7917;50.818;6.972;2023-07-02T03:06:10;21.75;;;10.50;;
15635;SDS011;7917;50.818;6.972;2023-07-02T03:08:38;18.00;;;10.63;;
15635;SDS011;7917;50.818;6.972;2023-07-02T03:11:05;18.55;;;10.13;;
15635;SDS011;7917;50.818;6.972;2023-07-02T03:13:33;18.17;;;10.25;;
15635;SDS011;7917;50.818;6.972;2023-07-02T03:16:00;21.75;;;10.52;;
15635;SDS011;7917;50.818;6.972;2023-07-02T03:18:27;21.48;;;10.68;;
15635;SDS011;7917;50.818;6.972;2023-07-02T03:20:54;20.15;;;10.82;;
15635;SDS011;7917;50.818;6.972;2023-07-02T03:23:21;21.48;;;10.25;;
15635;SDS011;7917;50.818;6.972;2023-07-02T03:25:47;23.55;;;11.27;;
15635;SDS011;7917;50.818;6.972;2023-07-02T03:28:13;28.20;;;11.27;;
15635;SDS011;7917;50.818;6.972;2023-07-02T03:30:40;21.33;;;10.70;;
15635;SDS011;7917;50.818;6.972;2023-07-02T03:33:07;20.60;;;11.23;;
15635;SDS011;7917;50.818;6.972;2023-07-02T03:35:35;23.60;;;11.75;;
15635;SDS011;7917;50.818;6.972;2023-07-02T03:38:02;21.27;;;10.98;;
15635;SDS011;7917;50.818;6.972;2023-07-02T03:40:28;20.50;;;11.02;;
15635;SDS011;7917;50.818;6.972;2023-07-02T03:42:55;22.20;;;11.55;;
15635;SDS011;7917;50.818;6.972;2023-07-02T03:45:22;24.50;;;11.90;;
15635;SDS011;7917;50.818;6.972;2023-07-02T03:47:49;23.02;;;12.63;;
15635;SDS011;7917;50.818;6.972;2023-07-02T03:50:15;26.98;;;13.00;;
15635;SDS011;7917;50.818;6.972;2023-07-02T03:52:43;28.25;;;12.85;;
15635;SDS011;7917;50.818;6.972;2023-07-02T03:55:10;27.67;;;13.73;;
15635;SDS011;7917;50.818;6.972;2023-07-02T03:57:37;23.90;;;12.88;;
15635;SDS011;7917;50.818;6.972;2023-07-02T04:00:04;29.25;;;13.18;;
15635;SDS011;7917;50.818;6.972;2023-07-02T04:02:33;27.45;;;13.90;;
15635;SDS011;7917;50.818;6.972;2023-07-02T04:05:00;31.88;;;15.18;;
15635;SDS011;7917;50.818;6.972;2023-07-02T04:07:27;28.08;;;13.27;;
15635;SDS011;7917;50.818;6.972;2023-07-02T04:09:54;26.75;;;14.20;;
15635;SDS011;7917;50.818;6.972;2023-07-02T04:12:21;25.25;;;13.95;;
15635;SDS011;7917;50.818;6.972;2023-07-02T04:14:47;27.08;;;14.07;;
15635;SDS011;7917;50.818;6.972;2023-07-02T04:17:14;28.67;;;14.10;;
15635;SDS011;7917;50.818;6.972;2023-07-02T04:19:41;25.25;;;13.85;;
15635;SDS011;7917;50.818;6.972;2023-07-02T04:22:09;30.50;;;14.65;;
15635;SDS011;7917;50.818;6.972;2023-07-02T04:24:36;26.92;;;14.30;;
15635;SDS011;7917;50.818;6.972;2023-07-02T04:27:03;24.42;;;14.98;;
15635;SDS011;7917;50.818;6.972;2023-07-02T04:29:30;27.10;;;14.98;;
15635;SDS011;7917;50.818;6.972;2023-07-02T04:31:57;32.00;;;15.90;;
15635;SDS011;7917;50.818;6.972;2023-07-02T04:34:26;35.72;;;16.45;;
15635;SDS011;7917;50.818;6.972;2023-07-02T04:36:53;32.92;;;16.15;;
15635;SDS011;7917;50.818;6.972;2023-07-02T04:39:19;32.72;;;16.98;;
15635;SDS011;7917;50.818;6.972;2023-07-02T04:41:46;31.10;;;16.77;;
15635;SDS011;7917;50.818;6.972;2023-07-02T04:44:15;35.70;;;16.77;;
15635;SDS011;7917;50.818;6.972;2023-07-02T04:46:42;33.83;;;18.13;;
15635;SDS011;7917;50.818;6.972;2023-07-02T04:49:08;31.95;;;16.90;;
15635;SDS011;7917;50.818;6.972;2023-07-02T04:51:35;30.35;;;17.80;;
15635;SDS011;7917;50.818;6.972;2023-07-02T04:54:01;40.60;;;18.27;;
15635;SDS011;7917;50.818;6.972;2023-07-02T04:56:29;29.95;;;17.65;;
15635;SDS011;7917;50.818;6.972;2023-07-02T04:58:55;33.88;;;18.00;;
15635;SDS011;7917;50.818;6.972;2023-07-02T05:01:22;33.00;;;17.65;;
15635;SDS011;7917;50.818;6.972;2023-07-02T05:03:49;33.55;;;18.15;;
15635;SDS011;7917;50.818;6.972;2023-07-02T05:06:15;31.77;;;18.88;;
15635;SDS011;7917;50.818;6.972;2023-07-02T05:08:42;36.80;;;19.60;;
15635;SDS011;7917;50.818;6.972;2023-07-02T05:11:08;38.80;;;19.80;;
15635;SDS011;7917;50.818;6.972;2023-07-02T05:13:34;39.25;;;19.75;;
15635;SDS011;7917;50.818;6.972;2023-07-02T05:16:01;41.25;;;19.55;;
15635;SDS011;7917;50.818;6.972;2023-07-02T05:18:28;39.15;;;20.33;;
15635;SDS011;7917;50.818;6.972;2023-07-02T05:20:55;42.30;;;20.33;;
15635;SDS011;7917;50.818;6.972;2023-07-02T05:23:21;38.92;;;19.60;;
15635;SDS011;7917;50.818;6.972;2023-07-02T05:25:51;45.50;;;22.35;;
15635;SDS011;7917;50.818;6.972;2023-07-02T05:28:17;42.05;;;21.13;;
15635;SDS011;7917;50.818;6.972;2023-07-02T05:30:43;43.38;;;21.17;;
15635;SDS011;7917;50.818;6.972;2023-07-02T05:33:11;42.60;;;21.10;;
15635;SDS011;7917;50.818;6.972;2023-07-02T05:35:39;48.65;;;21.95;;
15635;SDS011;7917;50.818;6.972;2023-07-02T05:38:05;44.63;;;21.15;;
15635;SDS011;7917;50.818;6.972;2023-07-02T05:40:33;41.38;;;21.55;;
15635;SDS011;7917;50.818;6.972;2023-07-02T05:42:59;43.85;;;22.65;;
15635;SDS011;7917;50.818;6.972;2023-07-02T05:45:25;41.38;;;21.88;;
15635;SDS011;7917;50.818;6.972;2023-07-02T05:47:55;40.65;;;21.25;;
15635;SDS011;7917;50.818;6.972;2023-07-02T05:50:21;39.95;;;21.25;;
15635;SDS011;7917;50.818;6.972;2023-07-02T05:52:48;42.78;;;22.33;;
15635;SDS011;7917;50.818;6.972;2023-07-02T05:55:15;44.38;;;22.70;;
15635;SDS011;7917;50.818;6.972;2023-07-02T05:57:43;47.10;;;21.23;;
15635;SDS011;7917;50.818;6.972;2023-07-02T06:00:10;37.13;;;20.92;;
15635;SDS011;7917;50.818;6.972;2023-07-02T06:02:38;48.20;;;22.02;;
15635;SDS011;7917;50.818;6.972;2023-07-02T06:05:05;46.47;;;21.83;;
15635;SDS011;7917;50.818;6.972;2023-07-02T06:07:32;39.13;;;22.08;;
15635;SDS011;7917;50.818;6.972;2023-07-02T06:09:59;39.05;;;20.65;;
15635;SDS011;7917;50.818;6.972;2023-07-02T06:12:29;45.92;;;21.08;;
15635;SDS011;7917;50.818;6.972;2023-07-02T06:14:55;44.15;;;22.05;;
15635;SDS011;7917;50.818;6.972;2023-07-02T06:17:22;34.80;;;19.13;;
15635;SDS011;7917;50.818;6.972;2023-07-02T06:19:50;49.08;;;21.75;;
15635;SDS011;7917;50.818;6.972;2023-07-02T06:22:16;39.60;;;20.77;;
15635;SDS011;7917;50.818;6.972;2023-07-02T06:24:45;40.17;;;20.55;;
15635;SDS011;7917;50.818;6.972;2023-07-02T06:27:13;39.65;;;19.83;;
15635;SDS011;7917;50.818;6.972;2023-07-02T06:29:39;45.88;;;21.23;;
15635;SDS011;7917;50.818;6.972;2023-07-02T06:32:06;38.80;;;20.13;;
15635;SDS011;7917;50.818;6.972;2023-07-02T06:34:35;36.38;;;19.60;;
15635;SDS011;7917;50.818;6.972;2023-07-02T06:37:02;37.05;;;19.88;;
15635;SDS011;7917;50.818;6.972;2023-07-02T06:39:29;34.60;;;19.55;;
15635;SDS011;7917;50.818;6.972;2023-07-02T06:41:55;37.78;;;19.40;;
15635;SDS011;7917;50.818;6.972;2023-07-02T06:44:23;35.15;;;18.98;;
15635;SDS011;7917;50.818;6.972;2023-07-02T06:46:50;38.83;;;20.05;;
15635;SDS011;7917;50.818;6.972;2023-07-02T06:49:17;38.53;;;19.75;;
15635;SDS011;7917;50.818;6.972;2023-07-02T06:51:43;34.97;;;18.92;;
15635;SDS011;7917;50.818;6.972;2023-07-02T06:54:10;38.63;;;18.40;;
15635;SDS011;7917;50.818;6.972;2023-07-02T06:56:38;32.75;;;18.05;;
15635;SDS011;7917;50.818;6.972;2023-07-02T06:59:18;32.58;;;17.40;;
15635;SDS011;7917;50.818;6.972;2023-07-02T07:01:46;34.72;;;17.70;;
15635;SDS011;7917;50.818;6.972;2023-07-02T07:04:13;37.65;;;18.67;;
15635;SDS011;7917;50.818;6.972;2023-07-02T07:06:39;33.50;;;17.90;;
15635;SDS011;7917;50.818;6.972;2023-07-02T07:09:07;32.63;;;17.02;;
15635;SDS011;7917;50.818;6.972;2023-07-02T07:11:36;28.00;;;17.58;;
15635;SDS011;7917;50.818;6.972;2023-07-02T07:14:03;34.03;;;17.90;;
15635;SDS011;7917;50.818;6.972;2023-07-02T07:16:32;28.90;;;15.80;;
15635;SDS011;7917;50.818;6.972;2023-07-02T07:19:00;28.33;;;16.05;;
15635;SDS011;7917;50.818;6.972;2023-07-02T07:21:27;28.48;;;15.50;;
15635;SDS011;7917;50.818;6.972;2023-07-02T07:23:53;29.30;;;15.80;;
15635;SDS011;7917;50.818;6.972;2023-07-02T07:26:20;30.95;;;16.75;;
15635;SDS011;7917;50.818;6.972;2023-07-02T07:28:47;30.77;;;15.20;;
15635;SDS011;7917;50.818;6.972;2023-07-02T07:31:14;31.50;;;15.63;;
15635;SDS011;7917;50.818;6.972;2023-07-02T07:33:41;31.85;;;16.20;;
15635;SDS011;7917;50.818;6.972;2023-07-02T07:36:08;27.95;;;15.57;;
15635;SDS011;7917;50.818;6.972;2023-07-02T07:38:35;30.58;;;15.82;;
15635;SDS011;7917;50.818;6.972;2023-07-02T07:41:01;31.00;;;14.57;;
15635;SDS011;7917;50.818;6.972;2023-07-02T07:43:28;29.15;;;14.90;;
15635;SDS011;7917;50.818;6.972;2023-07-02T07:45:59;29.70;;;15.20;;
15635;SDS011;7917;50.818;6.972;2023-07-02T07:48:26;26.55;;;15.60;;
15635;SDS011;7917;50.818;6.972;2023-07-02T07:50:52;26.75;;;15.13;;
15635;SDS011;7917;50.818;6.972;2023-07-02T07:53:20;27.20;;;16.05;;
15635;SDS011;7917;50.818;6.972;2023-07-02T07:55:46;27.08;;;15.82;;
15635;SDS011;7917;50.818;6.972;2023-07-02T07:58:13;27.13;;;15.93;;
15635;SDS011;7917;50.818;6.972;2023-07-02T08:00:40;32.00;;;15.07;;
15635;SDS011;7917;50.818;6.972;2023-07-02T08:03:06;29.52;;;15.43;;
15635;SDS011;7917;50.818;6.972;2023-07-02T08:05:33;30.90;;;15.65;;
15635;SDS011;7917;50.818;6.972;2023-07-02T08:08:01;30.45;;;16.42;;
15635;SDS011;7917;50.818;6.972;2023-07-02T08:10:28;27.08;;;16.13;;
15635;SDS011;7917;50.818;6.972;2023-07-02T08:12:55;27.88;;;14.82;;
15635;SDS011;7917;50.818;6.972;2023-07-02T08:15:21;28.40;;;15.00;;
15635;SDS011;7917;50.818;6.972;2023-07-02T08:17:48;26.38;;;13.82;;
15635;SDS011;7917;50.818;6.972;2023-07-02T08:20:16;25.13;;;14.85;;
15635;SDS011;7917;50.818;6.972;2023-07-02T08:22:43;29.15;;;14.90;;
15635;SDS011;7917;50.818;6.972;2023-07-02T08:25:10;30.95;;;14.68;;
15635;SDS011;7917;50.818;6.972;2023-07-02T08:27:37;28.50;;;14.55;;
15635;SDS011;7917;50.818;6.972;2023-07-02T08:30:04;29.13;;;13.60;;
15635;SDS011;7917;50.818;6.972;2023-07-02T08:32:33;25.55;;;13.75;;
15635;SDS011;7917;50.818;6.972;2023-07-02T08:34:59;22.35;;;13.00;;
15635;SDS011;7917;50.818;6.972;2023-07-02T08:37:26;23.85;;;14.25;;
15635;SDS011;7917;50.818;6.972;2023-07-02T08:39:53;24.85;;;13.90;;
15635;SDS011;7917;50.818;6.972;2023-07-02T08:42:20;25.75;;;13.23;;
15635;SDS011;7917;50.818;6.972;2023-07-02T08:44:48;26.50;;;14.02;;
15635;SDS011;7917;50.818;6.972;2023-07-02T08:47:19;25.25;;;13.63;;
15635;SDS011;7917;50.818;6.972;2023-07-02T08:49:47;25.00;;;14.38;;
15635;SDS011;7917;50.818;6.972;2023-07-02T08:52:17;23.70;;;14.35;;
15635;SDS011;7917;50.818;6.972;2023-07-02T08:54:44;26.25;;;15.27;;
15635;SDS011;7917;50.818;6.972;2023-07-02T08:57:11;26.40;;;14.55;;
15635;SDS011;7917;50.818;6.972;2023-07-02T08:59:38;22.30;;;13.48;;
15635;SDS011;7917;50.818;6.972;2023-07-02T09:02:06;25.70;;;14.02;;
15635;SDS011;7917;50.818;6.972;2023-07-02T09:04:33;27.60;;;16.05;;
15635;SDS011;7917;50.818;6.972;2023-07-02T09:07:03;26.15;;;15.73;;
15635;SDS011;7917;50.818;6.972;2023-07-02T09:09:30;27.30;;;15.18;;
15635;SDS011;7917;50.818;6.972;2023-07-02T09:11:57;30.40;;;15.55;;
15635;SDS011;7917;50.818;6.972;2023-07-02T09:14:24;29.25;;;15.32;;
15635;SDS011;7917;50.818;6.972;2023-07-02T09:17:01;27.20;;;15.43;;
15635;SDS011;7917;50.818;6.972;2023-07-02T09:19:34;26.35;;;16.35;;
15635;SDS011;7917;50.818;6.972;2023-07-02T09:22:02;30.65;;;17.52;;
15635;SDS011;7917;50.818;6.972;2023-07-02T09:24:30;28.42;;;15.70;;
15635;SDS011;7917;50.818;6.972;2023-07-02T09:26:58;26.55;;;15.77;;
15635;SDS011;7917;50.818;6.972;2023-07-02T09:29:26;28.08;;;16.45;;
15635;SDS011;7917;50.818;6.972;2023-07-02T09:31:54;25.38;;;13.40;;
15635;SDS011;7917;50.818;6.972;2023-07-02T09:34:26;31.30;;;15.50;;
15635;SDS011;7917;50.818;6.972;2023-07-02T09:36:54;26.85;;;14.55;;
15635;SDS011;7917;50.818;6.972;2023-07-02T09:39:25;25.90;;;15.70;;
15635;SDS011;7917;50.818;6.972;2023-07-02T09:41:53;28.40;;;14.27;;
15635;SDS011;7917;50.818;6.972;2023-07-02T09:44:21;30.05;;;15.63;;
15635;SDS011;7917;50.818;6.972;2023-07-02T09:46:51;27.88;;;15.10;;
15635;SDS011;7917;50.818;6.972;2023-07-02T09:49:24;24.35;;;13.68;;
15635;SDS011;7917;50.818;6.972;2023-07-02T09:51:52;28.35;;;14.27;;
15635;SDS011;7917;50.818;6.972;2023-07-02T09:54:19;27.50;;;14.73;;
15635;SDS011;7917;50.818;6.972;2023-07-02T09:56:47;25.45;;;14.07;;
15635;SDS011;7917;50.818;6.972;2023-07-02T09:59:14;23.85;;;14.52;;
15635;SDS011;7917;50.818;6.972;2023-07-02T10:01:41;32.95;;;15.93;;
15635;SDS011;7917;50.818;6.972;2023-07-02T10:04:11;24.90;;;14.63;;
15635;SDS011;7917;50.818;6.972;2023-07-02T10:06:45;32.22;;;15.93;;
15635;SDS011;7917;50.818;6.972;2023-07-02T10:09:14;23.70;;;14.18;;
15635;SDS011;7917;50.818;6.972;2023-07-02T10:11:43;26.40;;;15.43;;
15635;SDS011;7917;50.818;6.972;2023-07-02T10:14:10;23.40;;;14.15;;
15635;SDS011;7917;50.818;6.972;2023-07-02T10:19:25;26.75;;;14.32;;
15635;SDS011;7917;50.818;6.972;2023-07-02T10:22:00;27.50;;;13.57;;
15635;SDS011;7917;50.818;6.972;2023-07-02T10:24:28;29.33;;;14.77;;
15635;SDS011;7917;50.818;6.972;2023-07-02T10:26:56;24.45;;;13.90;;
15635;SDS011;7917;50.818;6.972;2023-07-02T10:29:24;23.30;;;13.93;;
15635;SDS011;7917;50.818;6.972;2023-07-02T10:31:53;29.30;;;13.15;;
15635;SDS011;7917;50.818;6.972;2023-07-02T10:34:30;20.48;;;12.90;;
15635;SDS011;7917;50.818;6.972;2023-07-02T10:36:59;23.58;;;13.55;;
15635;SDS011;7917;50.818;6.972;2023-07-02T10:39:26;22.20;;;13.25;;
15635;SDS011;7917;50.818;6.972;2023-07-02T10:42:03;26.88;;;14.55;;
15635;SDS011;7917;50.818;6.972;2023-07-02T10:44:31;20.85;;;13.23;;
15635;SDS011;7917;50.818;6.972;2023-07-02T10:46:58;25.13;;;13.48;;
15635;SDS011;7917;50.818;6.972;2023-07-02T10:49:29;25.63;;;13.95;;
15635;SDS011;7917;50.818;6.972;2023-07-02T10:51:59;25.70;;;15.60;;
15635;SDS011;7917;50.818;6.972;2023-07-02T10:54:37;22.35;;;12.50;;
15635;SDS011;7917;50.818;6.972;2023-07-02T10:57:06;23.83;;;13.25;;
15635;SDS011;7917;50.818;6.972;2023-07-02T10:59:33;23.60;;;11.55;;
15635;SDS011;7917;50.818;6.972;2023-07-02T11:02:01;24.48;;;11.75;;
15635;SDS011;7917;50.818;6.972;2023-07-02T11:04:28;22.15;;;11.85;;
15635;SDS011;7917;50.818;6.972;2023-07-02T11:06:56;21.60;;;12.77;;
15635;SDS011;7917;50.818;6.972;2023-07-02T11:09:24;25.85;;;11.57;;
15635;SDS011;7917;50.818;6.972;2023-07-02T11:11:52;19.63;;;11.93;;
15635;SDS011;7917;50.818;6.972;2023-07-02T11:14:28;28.65;;;13.02;;
15635;SDS011;7917;50.818;6.972;2023-07-02T11:16:56;19.25;;;12.57;;
15635;SDS011;7917;50.818;6.972;2023-07-02T11:19:24;24.08;;;13.00;;
15635;SDS011;7917;50.818;6.972;2023-07-02T11:21:51;27.45;;;13.13;;
15635;SDS011;7917;50.818;6.972;2023-07-02T11:24:26;25.73;;;13.77;;
15635;SDS011;7917;50.818;6.972;2023-07-02T11:26:54;23.63;;;13.80;;
15635;SDS011;7917;50.818;6.972;2023-07-02T11:29:21;21.50;;;13.27;;
15635;SDS011;7917;50.818;6.972;2023-07-02T11:31:49;22.35;;;13.63;;
15635;SDS011;7917;50.818;6.972;2023-07-02T11:34:17;22.08;;;13.13;;
15635;SDS011;7917;50.818;6.972;2023-07-02T11:36:44;26.02;;;14.45;;
15635;SDS011;7917;50.818;6.972;2023-07-02T11:39:13;22.58;;;12.82;;
15635;SDS011;7917;50.818;6.972;2023-07-02T11:41:41;23.85;;;14.10;;
15635;SDS011;7917;50.818;6.972;2023-07-02T11:44:09;22.17;;;12.68;;
15635;SDS011;7917;50.818;6.972;2023-07-02T11:46:36;21.33;;;12.82;;
15635;SDS011;7917;50.818;6.972;2023-07-02T11:49:04;26.42;;;12.82;;
15635;SDS011;7917;50.818;6.972;2023-07-02T11:51:33;22.83;;;12.20;;
15635;SDS011;7917;50.818;6.972;2023-07-02T11:54:00;24.92;;;12.15;;
15635;SDS011;7917;50.818;6.972;2023-07-02T11:56:27;24.92;;;11.93;;
15635;SDS011;7917;50.818;6.972;2023-07-02T11:58:54;32.92;;;12.40;;
15635;SDS011;7917;50.818;6.972;2023-07-02T12:01:22;23.23;;;12.45;;
15635;SDS011;7917;50.818;6.972;2023-07-02T12:03:49;25.80;;;12.77;;
15635;SDS011;7917;50.818;6.972;2023-07-02T12:06:17;22.83;;;11.18;;
15635;SDS011;7917;50.818;6.972;2023-07-02T12:08:45;26.70;;;12.50;;
15635;SDS011;7917;50.818;6.972;2023-07-02T12:11:11;21.05;;;12.38;;
15635;SDS011;7917;50.818;6.972;2023-07-02T12:13:38;25.83;;;11.50;;
15635;SDS011;7917;50.818;6.972;2023-07-02T12:16:06;21.17;;;10.70;;
15635;SDS011;7917;50.818;6.972;2023-07-02T12:18:33;26.98;;;11.38;;
15635;SDS011;7917;50.818;6.972;2023-07-02T12:21:00;20.42;;;10.70;;
15635;SDS011;7917;50.818;6.972;2023-07-02T12:23:27;21.25;;;11.95;;
15635;SDS011;7917;50.818;6.972;2023-07-02T12:25:55;17.88;;;11.57;;
15635;SDS011;7917;50.818;6.972;2023-07-02T12:28:22;22.77;;;11.48;;
15635;SDS011;7917;50.818;6.972;2023-07-02T12:30:49;18.83;;;11.25;;
15635;SDS011;7917;50.818;6.972;2023-07-02T12:33:16;18.67;;;11.15;;
15635;SDS011;7917;50.818;6.972;2023-07-02T12:35:43;25.40;;;11.68;;
15635;SDS011;7917;50.818;6.972;2023-07-02T12:38:10;26.48;;;11.85;;
15635;SDS011;7917;50.818;6.972;2023-07-02T12:40:39;17.35;;;11.18;;
15635;SDS011;7917;50.818;6.972;2023-07-02T12:43:06;21.33;;;10.98;;
15635;SDS011;7917;50.818;6.972;2023-07-02T12:45:32;18.30;;;11.50;;
15635;SDS011;7917;50.818;6.972;2023-07-02T12:47:59;21.58;;;11.05;;
15635;SDS011;7917;50.818;6.972;2023-07-02T12:50:26;20.40;;;11.02;;
15635;SDS011;7917;50.818;6.972;2023-07-02T12:52:53;22.92;;;11.40;;
15635;SDS011;7917;50.818;6.972;2023-07-02T12:55:22;22.67;;;11.43;;
15635;SDS011;7917;50.818;6.972;2023-07-02T12:57:49;18.83;;;10.70;;
15635;SDS011;7917;50.818;6.972;2023-07-02T13:00:16;22.00;;;11.63;;
15635;SDS011;7917;50.818;6.972;2023-07-02T13:02:44;21.38;;;10.73;;
15635;SDS011;7917;50.818;6.972;2023-07-02T13:05:12;19.42;;;10.88;;
15635;SDS011;7917;50.818;6.972;2023-07-02T13:07:39;23.38;;;11.60;;
15635;SDS011;7917;50.818;6.972;2023-07-02T13:10:07;19.25;;;11.60;;
15635;SDS011;7917;50.818;6.972;2023-07-02T13:12:34;24.85;;;11.65;;
15635;SDS011;7917;50.818;6.972;2023-07-02T13:15:01;20.83;;;11.68;;
15635;SDS011;7917;50.818;6.972;2023-07-02T13:17:28;22.90;;;12.20;;
15635;SDS011;7917;50.818;6.972;2023-07-02T13:19:55;20.83;;;11.48;;
15635;SDS011;7917;50.818;6.972;2023-07-02T13:22:22;22.13;;;11.70;;
15635;SDS011;7917;50.818;6.972;2023-07-02T13:24:49;21.33;;;11.27;;
15635;SDS011;7917;50.818;6.972;2023-07-02T13:27:16;21.13;;;11.65;;
15635;SDS011;7917;50.818;6.972;2023-07-02T13:29:44;18.52;;;11.32;;
15635;SDS011;7917;50.818;6.972;2023-07-02T13:32:12;19.98;;;11.90;;
15635;SDS011;7917;50.818;6.972;2023-07-02T13:34:39;22.40;;;12.10;;
15635;SDS011;7917;50.818;6.972;2023-07-02T13:37:06;28.67;;;11.73;;
15635;SDS011;7917;50.818;6.972;2023-07-02T13:39:34;23.65;;;12.05;;
15635;SDS011;7917;50.818;6.972;2023-07-02T13:42:00;21.40;;;11.52;;
15635;SDS011;7917;50.818;6.972;2023-07-02T13:44:28;20.48;;;11.80;;
15635;SDS011;7917;50.818;6.972;2023-07-02T13:46:54;21.10;;;11.48;;
15635;SDS011;7917;50.818;6.972;2023-07-02T13:49:22;24.17;;;11.52;;
15635;SDS011;7917;50.818;6.972;2023-07-02T13:51:49;19.40;;;11.65;;
15635;SDS011;7917;50.818;6.972;2023-07-02T13:54:16;23.40;;;11.90;;
15635;SDS011;7917;50.818;6.972;2023-07-02T13:56:45;18.35;;;11.27;;
15635;SDS011;7917;50.818;6.972;2023-07-02T13:59:13;21.42;;;11.90;;
15635;SDS011;7917;50.818;6.972;2023-07-02T14:01:40;21.80;;;11.23;;
15635;SDS011;7917;50.818;6.972;2023-07-02T14:04:07;20.17;;;11.52;;
15635;SDS011;7917;50.818;6.972;2023-07-02T14:06:35;19.85;;;11.98;;
15635;SDS011;7917;50.818;6.972;2023-07-02T14:09:02;20.05;;;12.38;;
15635;SDS011;7917;50.818;6.972;2023-07-02T14:11:29;22.73;;;12.18;;
15635;SDS011;7917;50.818;6.972;2023-07-02T14:13:56;23.38;;;12.35;;
15635;SDS011;7917;50.818;6.972;2023-07-02T14:16:28;21.83;;;12.13;;
15635;SDS011;7917;50.818;6.972;2023-07-02T14:18:54;22.63;;;12.25;;
15635;SDS011;7917;50.818;6.972;2023-07-02T14:21:21;20.00;;;11.02;;
15635;SDS011;7917;50.818;6.972;2023-07-02T14:23:48;19.60;;;11.63;;
15635;SDS011;7917;50.818;6.972;2023-07-02T14:26:16;19.92;;;11.20;;
15635;SDS011;7917;50.818;6.972;2023-07-02T14:28:43;18.92;;;11.55;;
15635;SDS011;7917;50.818;6.972;2023-07-02T14:31:10;17.33;;;10.85;;
15635;SDS011;7917;50.818;6.972;2023-07-02T14:33:38;22.00;;;11.63;;
15635;SDS011;7917;50.818;6.972;2023-07-02T14:36:06;17.75;;;10.85;;
15635;SDS011;7917;50.818;6.972;2023-07-02T14:38:33;23.20;;;11.75;;
15635;SDS011;7917;50.818;6.972;2023-07-02T14:41:00;15.45;;;10.02;;
15635;SDS011;7917;50.818;6.972;2023-07-02T14:43:28;22.95;;;10.95;;